Time;durP1;ratioP1;P1;durP2;ratioP2;P2;SDS_P1;SDS_P2;PMS_P1;PMS_P2;Temp;Humidity;BMP_temperature;BMP_pressure;BME280_temperature;BME280_humidity;BME280_pressure;Samples;Min_cycle;Max_cycle;Signal;HPM_P1;HPM_P2
2022/06/11 00:02:23;;;;;;;0.40;0.40;;;18.50;99.90;18.00;101908.00;;;;5098093;28;20189;-72
2022/06/11 00:04:49;;;;;;;0.50;0.50;;;18.40;99.90;18.20;101954.00;;;;5098301;28;20260;-73
2022/06/11 00:07:21;;;;;;;0.30;0.30;;;18.30;99.90;18.10;101949.00;;;;5081141;28;20180;-73
2022/06/11 00:09:48;;;;;;;0.40;0.40;;;18.30;99.90;18.50;101949.00;;;;5098035;28;20180;-74
2022/06/11 00:12:15;;;;;;;0.40;0.40;;;18.40;99.90;18.50;101946.00;;;;5081087;28;20219;-74
2022/06/11 00:14:59;;;;;;;0.40;0.40;;;18.40;99.90;18.30;101908.00;;;;5097956;28;20196;-74
2022/06/11 00:17:28;;;;;;;0.40;0.40;;;18.40;99.90;18.50;101902.00;;;;5097598;28;20188;-73
2022/06/11 00:19:58;;;;;;;0.37;0.37;;;18.50;99.90;18.60;101944.00;;;;5098055;28;20186;-74
2022/06/11 00:22:41;;;;;;;0.40;0.40;;;18.50;99.90;18.80;101927.00;;;;5097862;28;20230;-73
2022/06/11 00:25:08;;;;;;;0.37;0.37;;;18.70;99.90;18.50;101936.00;;;;5097709;28;20170;-72
2022/06/11 00:27:34;;;;;;;0.40;0.40;;;18.60;99.90;18.20;101906.00;;;;5080999;28;20207;-73
2022/06/11 00:30:00;;;;;;;0.30;0.30;;;18.40;99.90;18.50;101938.00;;;;5097616;28;20188;-73
2022/06/11 00:32:26;;;;;;;0.60;0.60;;;18.40;99.90;18.70;101927.00;;;;5080450;28;20303;-73
2022/06/11 00:35:02;;;;;;;0.40;0.40;;;18.50;99.90;18.30;101928.00;;;;5097533;28;20173;-73
2022/06/11 00:37:48;;;;;;;0.40;0.40;;;18.40;99.90;18.60;101929.00;;;;5098166;28;20207;-73
2022/06/11 00:40:19;;;;;;;0.30;0.30;;;18.50;99.90;18.40;101920.00;;;;5082164;28;20180;-73
2022/06/11 00:42:47;;;;;;;0.30;0.30;;;18.50;99.90;18.80;101919.00;;;;5097524;28;20237;-73
2022/06/11 00:45:43;;;;;;;0.43;0.43;;;18.60;99.90;18.70;101924.00;;;;5096995;28;20184;-73
2022/06/11 00:48:20;;;;;;;0.57;0.50;;;18.70;99.90;18.70;101920.00;;;;5080668;28;20532;-73
2022/06/11 00:50:59;;;;;;;0.30;0.30;;;18.70;99.90;17.90;101908.00;;;;5097196;28;20183;-73
2022/06/11 00:53:33;;;;;;;0.30;0.30;;;18.50;99.90;18.20;101887.00;;;;5097320;28;20208;-73
2022/06/11 00:56:03;;;;;;;0.50;0.50;;;18.50;99.90;18.60;101919.00;;;;5079013;28;20176;-73
2022/06/11 00:58:40;;;;;;;0.27;0.27;;;18.60;99.90;18.20;101876.00;;;;5097223;28;20177;-73
2022/06/11 01:01:23;;;;;;;1.13;0.77;;;18.50;99.90;18.10;101924.00;;;;5078490;28;20601;-74
2022/06/11 01:03:54;;;;;;;0.30;0.30;;;18.40;99.90;17.80;101931.00;;;;5081551;28;20201;-72
2022/06/11 01:06:51;;;;;;;0.30;0.30;;;18.30;99.90;18.40;101923.00;;;;5076514;28;20263;-72
2022/06/11 01:09:20;;;;;;;0.30;0.30;;;18.40;99.90;18.40;101916.00;;;;5077632;28;20182;-72
2022/06/11 01:12:16;;;;;;;0.30;0.30;;;18.50;99.90;18.40;101883.00;;;;5076415;28;20202;-72
2022/06/11 01:15:12;;;;;;;0.27;0.27;;;18.50;99.90;18.30;101914.00;;;;5076762;28;20163;-72
2022/06/11 01:18:07;;;;;;;0.30;0.30;;;18.60;99.90;18.10;101914.00;;;;5059998;28;20188;-72
2022/06/11 01:20:58;;;;;;;0.30;0.30;;;18.40;99.90;18.80;101916.00;;;;5076426;28;20180;-72
2022/06/11 01:24:08;;;;;;;0.30;0.30;;;18.60;99.90;18.20;101920.00;;;;5094558;28;20186;-72
2022/06/11 01:26:53;;;;;;;0.60;0.60;;;18.40;99.90;17.90;101883.00;;;;5013061;28;20199;-73
2022/06/11 01:29:44;;;;;;;0.30;0.30;;;18.20;99.90;18.50;101884.00;;;;5094497;28;20534;-72
2022/06/11 01:32:42;;;;;;;0.30;0.30;;;18.30;99.90;18.10;101881.00;;;;5094046;28;20234;-73
2022/06/11 01:35:44;;;;;;;0.30;0.30;;;18.30;99.90;18.60;101920.00;;;;5094193;28;20183;-72
2022/06/11 01:38:29;;;;;;;0.30;0.30;;;18.40;99.90;18.50;101911.00;;;;5058406;28;20233;-72
2022/06/11 01:41:31;;;;;;;0.30;0.30;;;18.50;99.90;18.30;101883.00;;;;5076340;28;20171;-73
2022/06/11 01:44:09;;;;;;;0.73;0.73;;;18.30;99.90;17.80;101923.00;;;;5075861;28;20635;-73
2022/06/11 01:46:46;;;;;;;0.40;0.40;;;18.20;99.90;17.60;101915.00;;;;5075777;28;20175;-73
2022/06/11 01:49:22;;;;;;;0.50;0.50;;;18.00;99.90;17.90;101886.00;;;;5076011;28;20272;-72
2022/06/11 01:52:20;;;;;;;1.10;1.10;;;18.00;99.90;18.30;101898.00;;;;5093807;28;20202;-73
2022/06/11 01:55:13;;;;;;;0.30;0.30;;;18.30;99.90;17.80;101921.00;;;;5094303;28;20177;-73
2022/06/11 01:58:02;;;;;;;0.30;0.30;;;18.20;99.90;17.90;101920.00;;;;5093783;28;20171;-73
2022/06/11 02:00:43;;;;;;;0.30;0.30;;;18.10;99.90;17.60;101922.00;;;;5075701;28;20256;-73
2022/06/11 02:03:53;;;;;;;0.30;0.30;;;18.10;99.90;18.10;101928.00;;;;5075886;28;20583;-71
2022/06/11 02:07:01;;;;;;;0.30;0.30;;;18.20;99.90;18.00;101936.00;;;;5050976;28;20560;-70
2022/06/11 02:09:41;;;;;;;0.60;0.40;;;18.10;99.90;17.60;101928.00;;;;5059022;28;20279;-71
2022/06/11 02:12:28;;;;;;;0.63;0.63;;;18.00;99.90;17.50;101945.00;;;;5075361;28;20223;-73
2022/06/11 02:15:42;;;;;;;0.73;0.73;;;17.80;99.90;17.60;101940.00;;;;5075519;28;20196;-72
2022/06/11 02:18:26;;;;;;;1.13;1.13;;;17.80;99.90;18.00;101942.00;;;;5037668;28;20191;-72
2022/06/11 02:21:23;;;;;;;0.60;0.57;;;17.90;99.90;18.00;101940.00;;;;5059078;28;20263;-72
2022/06/11 02:24:17;;;;;;;0.37;0.37;;;17.90;99.90;18.00;101915.00;;;;5075746;28;20169;-75
2022/06/11 02:27:06;;;;;;;0.83;0.63;;;18.20;99.90;18.50;101900.00;;;;5058350;28;20181;-75
2022/06/11 02:29:53;;;;;;;0.33;0.33;;;18.40;99.90;18.10;101912.00;;;;5075371;28;20234;-75
2022/06/11 02:32:37;;;;;;;0.30;0.30;;;18.30;99.90;18.00;101899.00;;;;5058365;28;20231;-75
2022/06/11 02:35:36;;;;;;;0.33;0.33;;;18.10;99.90;18.20;101935.00;;;;5075324;28;20201;-75
2022/06/11 02:38:24;;;;;;;0.40;0.40;;;18.20;99.90;18.20;101938.00;;;;5058207;28;20735;-75
2022/06/11 02:41:06;;;;;;;0.30;0.30;;;18.20;99.90;17.90;101939.00;;;;5075463;28;20191;-75
2022/06/11 02:43:50;;;;;;;1.23;0.70;;;18.20;99.90;18.00;101949.00;;;;5075124;28;20660;-75
2022/06/11 02:49:29;;;;;;;0.37;0.37;;;18.20;99.90;18.30;101941.00;;;;5078321;28;20191;-76
2022/06/11 02:52:21;;;;;;;0.40;0.40;;;18.30;99.90;17.30;101937.00;;;;5058086;28;20203;-74
2022/06/11 02:54:55;;;;;;;0.60;0.60;;;17.90;99.90;17.20;101938.00;;;;5075029;28;20180;-74
2022/06/11 02:57:43;;;;;;;2.17;1.57;;;17.70;99.90;17.50;101941.00;;;;5075224;28;20262;-74
2022/06/11 03:00:32;;;;;;;4.03;0.90;;;17.70;99.90;17.00;101938.00;;;;5075293;28;20648;-74
2022/06/11 03:03:17;;;;;;;0.20;0.20;;;17.60;99.90;17.20;101936.00;;;;5075308;28;20188;-74
2022/06/11 03:06:01;;;;;;;1.67;1.00;;;17.60;99.90;17.70;101931.00;;;;5093187;28;20176;-73
2022/06/11 03:08:45;;;;;;;2.00;0.60;;;17.80;99.90;17.00;101911.00;;;;5092458;28;20270;-73
2022/06/11 03:11:30;;;;;;;0.20;0.20;;;17.60;99.90;16.90;101905.00;;;;5093030;28;20729;-75
2022/06/11 03:14:14;;;;;;;0.73;0.60;;;17.50;99.90;17.30;101903.00;;;;5074834;28;20184;-74
2022/06/11 03:16:57;;;;;;;0.20;0.20;;;17.60;99.90;17.00;101930.00;;;;5074953;28;20178;-74
2022/06/11 03:19:41;;;;;;;0.30;0.30;;;17.50;99.90;16.70;101941.00;;;;5077599;28;20184;-74
2022/06/11 03:22:24;;;;;;;0.50;0.40;;;17.40;99.90;17.00;101949.00;;;;5078334;28;20187;-74
2022/06/11 03:25:31;;;;;;;0.20;0.20;;;17.40;99.90;17.20;101955.00;;;;5078394;28;20162;-76
2022/06/11 03:28:12;;;;;;;0.20;0.20;;;17.40;99.90;17.50;101960.00;;;;5051276;28;20264;-75
2022/06/11 03:30:57;;;;;;;2.93;0.47;;;17.60;99.90;17.30;101957.00;;;;5097181;28;20273;-75
2022/06/11 03:33:31;;;;;;;0.50;0.50;;;17.50;99.90;16.70;101941.00;;;;5117349;28;20195;-75
2022/06/11 03:36:17;;;;;;;0.20;0.20;;;17.20;99.90;16.70;101946.00;;;;5081668;28;20190;-75
2022/06/11 03:39:02;;;;;;;0.40;0.40;;;17.20;99.90;17.30;101940.00;;;;5081048;28;20186;-75
2022/06/11 03:41:47;;;;;;;1.73;1.07;;;17.30;99.90;17.30;101963.00;;;;5098559;28;20202;-76
2022/06/11 03:44:30;;;;;;;0.70;0.30;;;17.40;99.90;16.80;101965.00;;;;5082005;28;20235;-75
2022/06/11 03:47:16;;;;;;;1.13;0.40;;;17.20;99.90;16.60;101971.00;;;;5081665;28;20247;-76
2022/06/11 03:50:00;;;;;;;1.83;0.50;;;17.10;99.90;16.50;101956.00;;;;5081413;28;20190;-75
2022/06/11 03:53:04;;;;;;;0.20;0.20;;;16.90;99.90;16.70;101969.00;;;;5097853;28;20267;-75
2022/06/11 03:55:48;;;;;;;0.20;0.20;;;16.90;99.90;17.30;101982.00;;;;5098133;28;20191;-75
2022/06/11 03:58:32;;;;;;;0.63;0.63;;;17.40;99.90;16.90;101950.00;;;;5116663;28;20170;-74
2022/06/11 04:01:19;;;;;;;0.20;0.20;;;17.20;99.90;17.10;101991.00;;;;5098125;28;20172;-74
2022/06/11 04:04:09;;;;;;;0.40;0.40;;;17.20;99.90;16.60;101995.00;;;;5081227;28;20308;-74
2022/06/11 04:06:59;;;;;;;0.20;0.20;;;17.20;99.90;16.90;102007.00;;;;5115899;28;20202;-74
2022/06/11 04:09:54;;;;;;;0.80;0.80;;;17.10;99.90;17.10;101998.00;;;;5081227;28;20182;-74
2022/06/11 04:12:45;;;;;;;3.17;0.50;;;17.20;99.90;17.60;101999.00;;;;5078213;28;20236;-74
2022/06/11 04:15:34;;;;;;;0.20;0.20;;;17.50;99.90;17.00;102002.00;;;;5097903;28;20597;-74
2022/06/11 04:18:25;;;;;;;0.20;0.20;;;17.30;99.90;17.40;101987.00;;;;5098071;28;20576;-74
2022/06/11 04:21:12;;;;;;;1.07;1.00;;;17.30;99.90;17.00;102022.00;;;;5097663;28;20282;-74
2022/06/11 04:23:58;;;;;;;0.20;0.20;;;17.30;99.90;16.80;102018.00;;;;5080862;28;20179;-74
2022/06/11 04:26:48;;;;;;;0.20;0.20;;;17.10;99.90;17.30;102032.00;;;;5080735;28;20228;-74
2022/06/11 04:29:35;;;;;;;4.33;2.07;;;17.30;99.90;16.70;102012.00;;;;5115788;28;20580;-74
2022/06/11 04:32:22;;;;;;;0.20;0.20;;;17.10;99.90;17.30;102011.00;;;;5097245;28;20364;-74
2022/06/11 04:35:07;;;;;;;0.20;0.20;;;17.20;99.90;17.00;102035.00;;;;5097526;28;20178;-74
2022/06/11 04:37:52;;;;;;;2.93;0.97;;;17.30;99.90;17.20;102025.00;;;;5097572;28;20233;-74
2022/06/11 04:40:53;;;;;;;0.30;0.30;;;17.30;99.90;17.10;102041.00;;;;5080520;28;20212;-74
2022/06/11 04:43:30;;;;;;;0.20;0.20;;;17.40;99.90;17.90;102044.00;;;;5097399;28;20239;-75
2022/06/11 04:46:17;;;;;;;0.63;0.60;;;17.80;99.90;18.30;102024.00;;;;5097536;28;20652;-74
2022/06/11 04:49:01;;;;;;;3.20;1.20;;;18.20;99.90;17.90;102075.00;;;;5065308;28;20757;-74
2022/06/11 04:51:35;;;;;;;0.20;0.20;;;18.20;99.90;17.30;102058.00;;;;5096890;28;20554;-75
2022/06/11 04:54:23;;;;;;;3.20;1.10;;;17.80;99.90;17.40;102060.00;;;;5097242;28;20531;-74
2022/06/11 04:57:07;;;;;;;9.43;3.43;;;17.70;99.90;17.80;102031.00;;;;5097137;28;20176;-74
2022/06/11 04:59:56;;;;;;;5.93;0.70;;;17.90;99.90;18.00;102075.00;;;;5096963;28;20511;-74
2022/06/11 05:02:42;;;;;;;1.70;1.53;;;17.90;99.90;18.40;102092.00;;;;5065638;28;20185;-74
2022/06/11 05:05:34;;;;;;;0.20;0.20;;;18.20;99.90;18.00;102093.00;;;;5096998;28;20172;-74
2022/06/11 05:08:17;;;;;;;0.67;0.67;;;18.10;99.90;18.40;102060.00;;;;5080556;28;20188;-74
2022/06/11 05:11:05;;;;;;;0.37;0.37;;;18.20;99.90;18.30;102098.00;;;;5097032;28;20178;-74
2022/06/11 05:13:48;;;;;;;0.30;0.30;;;18.40;99.90;18.80;102082.00;;;;5097169;28;20540;-76
2022/06/11 05:16:32;;;;;;;2.53;1.52;;;18.60;99.90;19.50;102097.00;;;;5080150;28;20186;-76
2022/06/11 05:19:20;;;;;;;0.10;0.10;;;19.10;99.90;19.70;102078.00;;;;5079829;28;20568;-77
2022/06/11 05:22:06;;;;;;;0.10;0.10;;;19.50;99.90;19.30;102119.00;;;;5096289;28;20184;-76
2022/06/11 05:24:52;;;;;;;0.57;0.57;;;19.50;99.90;21.40;102154.00;;;;5079513;28;20743;-76
2022/06/11 05:27:40;;;;;;;0.52;0.30;;;20.60;99.90;21.10;102140.00;;;;5081271;28;20180;-77
2022/06/11 05:30:26;;;;;;;0.88;0.85;;;20.60;99.90;21.40;102114.00;;;;5096756;28;20204;-77
2022/06/11 05:33:15;;;;;;;2.13;1.40;;;20.60;99.90;20.60;102162.00;;;;5079133;28;20302;-77
2022/06/11 05:36:20;;;;;;;4.55;1.45;;;20.90;99.90;18.60;102094.00;;;;5096483;28;20212;-77
2022/06/11 05:39:04;;;;;;;0.43;0.43;;;19.50;99.90;18.30;102040.00;;;;5079331;28;20188;-77
2022/06/11 05:41:37;;;;;;;0.17;0.17;;;18.50;99.90;17.70;102061.00;;;;5078586;28;20178;-78
2022/06/11 05:44:24;;;;;;;1.33;1.33;;;18.10;99.90;18.30;102024.00;;;;5079680;28;20206;-77
2022/06/11 05:47:14;;;;;;;0.20;0.20;;;18.20;99.90;17.40;102026.00;;;;5079749;28;20226;-77
2022/06/11 05:50:00;;;;;;;0.10;0.10;;;17.90;99.90;17.80;102054.00;;;;5078964;28;20215;-76
2022/06/11 05:52:47;;;;;;;1.03;0.60;;;17.90;99.90;17.00;102042.00;;;;5079009;28;20196;-75
2022/06/11 05:55:36;;;;;;;1.23;0.30;;;17.70;99.90;17.60;102053.00;;;;5095878;28;20175;-76
2022/06/11 05:58:28;;;;;;;0.57;0.57;;;17.80;99.90;17.40;102061.00;;;;5096638;28;20180;-75
2022/06/11 06:01:20;;;;;;;0.20;0.20;;;17.70;99.90;17.30;102056.00;;;;5114034;28;20176;-76
2022/06/11 06:04:04;;;;;;;3.30;0.47;;;17.60;99.90;17.80;102063.00;;;;5078755;28;20195;-75
2022/06/11 06:06:38;;;;;;;5.27;1.63;;;18.00;99.90;18.60;102078.00;;;;5095959;28;20176;-75
2022/06/11 06:09:39;;;;;;;7.23;1.93;;;18.30;99.90;18.40;102071.00;;;;5079579;28;20692;-76
2022/06/11 06:12:24;;;;;;;2.93;0.70;;;18.50;99.90;17.80;102069.00;;;;5095644;28;20218;-76
2022/06/11 06:15:03;;;;;;;0.30;0.30;;;18.60;99.90;17.90;102068.00;;;;5078686;28;20270;-76
2022/06/11 06:17:51;;;;;;;6.70;0.53;;;18.50;99.90;18.00;102061.00;;;;5095919;28;20267;-76
2022/06/11 06:20:44;;;;;;;1.75;1.27;;;18.20;99.90;18.00;102049.00;;;;5095879;28;20697;-77
2022/06/11 06:23:33;;;;;;;7.20;1.77;;;18.30;99.90;18.60;102031.00;;;;5095533;28;20548;-76
2022/06/11 06:26:21;;;;;;;2.10;0.73;;;18.50;99.90;17.80;102079.00;;;;5095911;28;20172;-74
2022/06/11 06:29:10;;;;;;;0.20;0.20;;;18.40;99.90;17.60;102066.00;;;;5078962;28;20208;-75
2022/06/11 06:31:37;;;;;;;0.20;0.20;;;18.10;99.90;17.70;102065.00;;;;5094972;28;20192;-73
2022/06/11 06:34:22;;;;;;;0.30;0.30;;;18.20;99.90;17.40;102043.00;;;;5095786;28;20179;-74
2022/06/11 06:37:09;;;;;;;0.20;0.20;;;18.10;99.90;17.80;102069.00;;;;5113556;28;20265;-73
2022/06/11 06:40:01;;;;;;;5.70;1.13;;;18.10;99.90;18.20;102059.00;;;;5095845;28;20263;-76
2022/06/11 06:43:05;;;;;;;0.82;0.35;;;18.30;99.90;19.30;102094.00;;;;5078507;28;20199;-76
2022/06/11 06:45:33;;;;;;;0.77;0.77;;;18.90;99.90;18.80;102096.00;;;;5066026;28;20183;-73
2022/06/11 06:48:17;;;;;;;0.88;0.88;;;18.90;99.90;18.10;102072.00;;;;5095270;28;20308;-74
2022/06/11 06:51:02;;;;;;;0.28;0.28;;;18.60;99.90;18.10;102090.00;;;;5078602;28;20582;-75
2022/06/11 06:53:50;;;;;;;2.20;1.60;;;18.50;99.90;17.80;102070.00;;;;5097152;28;20628;-75
2022/06/11 06:56:33;;;;;;;3.70;1.50;;;18.40;99.90;17.90;102072.00;;;;5082513;28;20707;-75
2022/06/11 06:59:19;;;;;;;0.20;0.20;;;18.30;99.90;19.00;102088.00;;;;5099396;28;20186;-75
2022/06/11 07:02:06;;;;;;;0.10;0.10;;;18.70;99.90;20.70;102096.00;;;;5099135;28;20269;-74
2022/06/11 07:04:32;;;;;;;1.25;0.80;;;19.90;99.90;19.30;102140.00;;;;5082109;28;20198;-72
2022/06/11 07:07:20;;;;;;;0.55;0.55;;;20.00;99.90;18.10;102110.00;;;;5099091;28;20184;-72
2022/06/11 07:09:54;;;;;;;2.70;0.93;;;19.20;99.90;19.20;102099.00;;;;5082255;28;20183;-72
2022/06/11 07:12:31;;;;;;;1.08;0.85;;;19.10;99.90;20.70;102142.00;;;;5099098;28;20207;-72
2022/06/11 07:15:15;;;;;;;4.57;2.88;;;20.00;99.90;20.40;102163.00;;;;5082439;28;20244;-72
2022/06/11 07:18:10;;;;;;;0.55;0.30;;;20.50;99.90;20.90;102176.00;;;;5099203;28;20172;-71
2022/06/11 07:20:56;;;;;;;0.32;0.32;;;20.80;99.90;19.00;102143.00;;;;5099101;28;20176;-72
2022/06/11 07:23:46;;;;;;;0.10;0.10;;;20.10;99.90;21.10;102143.00;;;;5098731;28;20211;-70
2022/06/11 07:26:34;;;;;;;1.63;1.52;;;20.30;99.90;20.40;102169.00;;;;5117020;28;20263;-70
2022/06/11 07:29:37;;;;;;;0.43;0.43;;;20.80;99.90;20.90;102173.00;;;;5099491;28;20209;-70
2022/06/11 07:32:19;;;;;;;0.10;0.10;;;20.90;99.90;24.20;102218.00;;;;5101109;28;20244;-70
2022/06/11 07:35:09;;;;;;;0.10;0.10;;;22.90;99.90;21.30;102201.00;;;;5098869;28;20171;-70
2022/06/11 07:38:13;;;;;;;0.10;0.10;;;21.80;99.90;23.60;102220.00;;;;5098017;28;20165;-70
2022/06/11 07:41:05;;;;;;;0.10;0.10;;;22.40;99.90;23.20;102244.00;;;;5067767;28;20518;-70
2022/06/11 07:44:09;;;;;;;7.60;1.30;;;23.10;99.90;21.80;102191.00;;;;5063886;28;20281;-72
2022/06/11 07:51:04;;;;;;;0.10;0.10;;;20.60;99.90;19.80;102185.00;;;;4974981;28;20220;-72
2022/06/11 07:54:08;;;;;;;0.10;0.10;;;19.90;99.90;20.40;102202.00;;;;4958606;28;20224;-72
2022/06/11 07:57:12;;;;;;;4.75;2.10;;;20.20;99.90;22.30;102240.00;;;;4974964;28;20695;-73
2022/06/11 07:59:46;;;;;;;1.95;1.80;;;21.30;99.90;22.30;102221.00;;;;4962165;28;20703;-70
2022/06/11 08:02:57;;;;;;;0.52;0.52;;;22.30;99.90;21.00;102205.00;;;;4977951;28;20202;-70
2022/06/11 08:06:02;;;;;;;2.67;1.45;;;21.80;99.90;20.90;102237.00;;;;4977234;28;20184;-70
2022/06/11 08:08:51;;;;;;;1.60;0.75;;;21.70;99.90;21.70;102242.00;;;;5030274;28;20193;-73
2022/06/11 08:11:42;;;;;;;5.60;1.70;;;21.70;99.90;22.00;102251.00;;;;5095814;28;20181;-70
2022/06/11 08:14:34;;;;;;;5.00;1.98;;;21.80;99.90;22.10;102246.00;;;;5077489;28;20185;-68
2022/06/11 08:17:37;;;;;;;0.15;0.15;;;21.90;99.90;23.20;102256.00;;;;5077765;28;20181;-72
2022/06/11 08:20:58;;;;;;;1.40;1.23;;;22.40;99.90;22.00;102232.00;;;;5062259;28;20169;-70
2022/06/11 08:23:46;;;;;;;1.17;0.85;;;22.70;99.90;21.90;102270.00;;;;5077434;28;20643;-70
2022/06/11 08:27:08;;;;;;;0.20;0.20;;;22.10;99.90;20.30;102264.00;;;;5077412;28;20180;-70
2022/06/11 08:30:13;;;;;;;6.18;2.25;;;20.80;99.90;20.60;102251.00;;;;5079746;28;20169;-70
2022/06/11 08:36:16;;;;;;;0.10;0.10;;;21.30;99.90;22.90;102284.00;;;;5080833;28;20177;-69
2022/06/11 08:38:58;;;;;;;1.85;0.55;;;21.90;99.90;20.70;102236.00;;;;5093674;28;20196;-70
2022/06/11 08:41:35;;;;;;;0.30;0.20;;;21.30;99.90;22.40;102250.00;;;;5094348;28;20653;-70
2022/06/11 08:44:13;;;;;;;0.10;0.10;;;21.90;99.90;22.80;102282.00;;;;5076867;28;20188;-70
2022/06/11 08:47:05;;;;;;;0.20;0.20;;;23.00;99.90;24.80;102298.00;;;;5060366;28;20176;-70
2022/06/11 08:49:40;;;;;;;0.28;0.20;;;24.00;99.90;24.10;102300.00;;;;5076804;28;20624;-70
2022/06/11 08:52:22;;;;;;;1.38;0.30;;;24.20;99.90;26.10;102292.00;;;;5096342;28;20196;-70
2022/06/11 08:54:51;;;;;;;0.88;0.75;;;25.00;99.90;28.00;102289.00;;;;5095468;28;20544;-71
2022/06/11 08:57:32;;;;;;;1.95;0.35;;;26.90;99.90;24.90;102293.00;;;;5085216;28;20181;-71
2022/06/11 09:00:17;;;;;;;1.88;0.73;;;26.00;99.90;24.00;102244.00;;;;5094409;28;20284;-70
2022/06/11 09:03:19;;;;;;;0.75;0.47;;;24.10;99.90;24.50;102271.00;;;;5097192;28;20168;-70
2022/06/11 09:06:53;;;;;;;;;;;;;;;;;;;;;
2022/06/11 09:09:39;;;;;;;1.98;0.85;;;25.40;99.90;24.40;102276.00;;;;5114707;28;20177;-70
2022/06/11 09:12:21;;;;;;;0.77;0.77;;;24.10;99.90;23.80;102295.00;;;;5096176;28;20216;-70
2022/06/11 09:15:16;;;;;;;2.50;0.88;;;23.60;99.90;23.40;102266.00;;;;5094802;28;20181;-70
2022/06/11 09:18:14;;;;;;;0.15;0.15;;;24.10;99.90;24.20;102257.00;;;;5075868;28;20276;-71
2022/06/11 09:20:57;;;;;;;0.45;0.45;;;23.90;99.90;25.50;102282.00;;;;5076350;28;20192;-70
2022/06/11 09:24:10;;;;;;;0.45;0.45;;;25.10;99.90;25.20;102288.00;;;;5095984;28;20631;-71
2022/06/11 09:27:00;;;;;;;0.13;0.13;;;26.20;99.90;27.20;102268.00;;;;5095659;28;20227;-71
2022/06/11 09:29:46;;;;;;;6.22;2.08;;;26.50;99.90;24.70;102295.00;;;;5096277;28;20205;-70
2022/06/11 09:32:26;;;;;;;4.30;1.45;;;24.90;99.90;23.90;102292.00;;;;5114283;28;20208;-71
2022/06/11 09:35:12;;;;;;;4.38;1.38;;;24.00;99.90;23.90;102282.00;;;;5096588;28;20634;-70
2022/06/11 09:38:05;;;;;;;0.10;0.10;;;23.80;99.90;23.70;102247.00;;;;5086547;28;20180;-70
2022/06/11 09:40:49;;;;;;;1.13;0.45;;;23.50;99.90;24.10;102272.00;;;;5079035;28;20172;-70
2022/06/11 09:44:01;;;;;;;0.10;0.10;;;24.40;99.90;24.80;102289.00;;;;5096843;28;20184;-71
2022/06/11 09:46:49;;;;;;;0.10;0.10;;;24.50;99.90;23.50;102277.00;;;;4998259;28;20202;-73
2022/06/11 09:49:50;;;;;;;0.90;0.90;;;23.60;99.90;26.10;102291.00;;;;5073224;28;20230;-71
2022/06/11 09:53:08;;;;;;;0.75;0.50;;;25.00;99.90;23.40;102293.00;;;;5075353;28;20249;-73
2022/06/11 09:56:31;;;;;;;0.93;0.93;;;24.60;99.90;23.10;102296.00;;;;5069825;28;20217;-70
2022/06/11 09:59:27;;;;;;;0.55;0.40;;;24.10;99.90;25.00;102297.00;;;;5081012;28;20197;-70
2022/06/11 10:02:16;;;;;;;0.10;0.10;;;24.30;99.90;23.00;102295.00;;;;5108792;28;20188;-70
2022/06/11 10:04:52;;;;;;;0.50;0.50;;;23.50;99.90;23.50;102247.00;;;;5114228;28;20176;-70
2022/06/11 10:07:40;;;;;;;0.52;0.52;;;23.30;99.90;25.60;102286.00;;;;5095501;28;20172;-70
2022/06/11 10:10:22;;;;;;;3.45;0.52;;;24.60;99.90;24.60;102309.00;;;;5095529;28;20305;-71
2022/06/11 10:13:12;;;;;;;0.35;0.28;;;24.70;99.90;23.60;102301.00;;;;5092266;28;20270;-71
2022/06/11 10:16:08;;;;;;;1.55;0.63;;;24.20;99.90;22.80;102289.00;;;;5075851;28;20153;-70
2022/06/11 10:18:44;;;;;;;2.30;1.10;;;23.20;99.90;22.90;102295.00;;;;5079245;28;20559;-71
2022/06/11 10:33:54;;;;;;;0.30;0.30;;;25.40;99.90;25.60;102298.00;;;;5070498;28;20593;-76
2022/06/11 10:36:35;;;;;;;1.45;0.68;;;25.60;99.90;23.70;102305.00;;;;5050372;28;20603;-75
2022/06/11 10:39:49;;;;;;;0.10;0.10;;;24.20;99.90;24.60;102304.00;;;;5049208;28;20249;-72
2022/06/11 10:42:43;;;;;;;0.40;0.40;;;24.30;99.90;23.80;102289.00;;;;5049167;28;20223;-73
2022/06/11 10:45:19;;;;;;;0.45;0.35;;;23.90;99.90;24.30;102305.00;;;;5046919;28;20525;-72
2022/06/11 10:47:52;;;;;;;0.20;0.20;;;24.30;99.90;25.80;102287.00;;;;5047796;28;20185;-72
2022/06/11 10:50:34;;;;;;;4.45;1.88;;;25.00;99.90;23.60;102293.00;;;;5045841;28;20210;-72
2022/06/11 10:53:18;;;;;;;5.70;2.22;;;24.50;99.90;25.00;102302.00;;;;5062002;28;20202;-72
2022/06/11 10:55:52;;;;;;;2.28;1.05;;;24.90;99.90;23.40;102299.00;;;;5029401;28;20186;-72
2022/06/11 10:58:43;;;;;;;9.30;0.95;;;24.20;99.90;23.10;102297.00;;;;5030030;28;20562;-72
2022/06/11 11:01:40;;;;;;;2.72;0.73;;;23.30;99.90;23.30;102276.00;;;;5045662;28;20183;-72
2022/06/11 11:04:30;;;;;;;0.10;0.10;;;23.70;99.90;25.70;102292.00;;;;5045350;28;20231;-73
2022/06/11 11:07:24;;;;;;;2.10;0.95;;;25.10;99.90;27.20;102295.00;;;;5045555;28;20261;-71
2022/06/11 11:10:34;;;;;;;0.73;0.47;;;26.40;99.90;27.30;102286.00;;;;5045344;28;20265;-71
2022/06/11 11:13:46;;;;;;;0.10;0.10;;;26.90;99.90;28.30;102289.00;;;;5040758;28;20214;-71
2022/06/11 11:16:40;;;;;;;0.10;0.10;;;28.10;99.90;29.80;102260.00;;;;5045243;28;20206;-71
2022/06/11 11:19:23;;;;;;;2.45;0.43;;;29.20;99.90;27.50;102244.00;;;;5045025;28;20646;-70
2022/06/11 11:22:30;;;;;;;0.10;0.10;;;28.20;99.90;26.40;102280.00;;;;5029786;28;20186;-71
2022/06/11 11:25:37;;;;;;;0.30;0.30;;;27.70;99.90;28.30;102265.00;;;;5029697;28;20195;-71
2022/06/11 11:28:43;;;;;;;0.25;0.15;;;27.40;99.90;28.00;102255.00;;;;5045026;28;20159;-71
2022/06/11 11:31:52;;;;;;;1.05;0.45;;;28.30;99.80;25.10;102292.00;;;;5044672;28;20300;-71
2022/06/11 11:34:48;;;;;;;0.30;0.30;;;26.60;99.90;24.40;102283.00;;;;5061539;28;20182;-71
2022/06/11 11:37:17;;;;;;;0.43;0.43;;;25.30;99.90;24.00;102258.00;;;;5027964;28;20175;-73
2022/06/11 11:40:20;;;;;;;0.75;0.75;;;24.00;99.90;24.40;102280.00;;;;5044735;28;20630;-70
2022/06/11 11:42:57;;;;;;;0.20;0.20;;;24.10;99.90;25.30;102280.00;;;;5040710;28;20191;-72
2022/06/11 11:45:43;;;;;;;0.77;0.52;;;24.60;99.90;25.40;102248.00;;;;5034156;28;20650;-74
2022/06/11 11:52:03;;;;;;;1.02;0.70;;;25.00;99.90;27.30;102273.00;;;;5027961;28;20550;-75
2022/06/11 11:54:38;;;;;;;0.10;0.10;;;26.30;99.90;27.80;102256.00;;;;5032849;28;20186;-74
2022/06/11 11:57:14;;;;;;;1.25;1.20;;;26.90;99.90;26.80;102262.00;;;;5033704;28;20191;-75
2022/06/11 12:00:19;;;;;;;0.70;0.70;;;27.00;99.90;24.70;102250.00;;;;5014414;28;20198;-75
2022/06/11 12:03:03;;;;;;;0.70;0.60;;;25.70;99.90;25.20;102251.00;;;;5021986;28;20244;-76
2022/06/11 12:06:02;;;;;;;0.10;0.10;;;25.40;99.90;25.80;102244.00;;;;5013665;28;20191;-76
2022/06/11 12:08:39;;;;;;;0.55;0.55;;;25.20;99.90;26.20;102261.00;;;;5009805;28;20237;-76
2022/06/11 12:11:22;;;;;;;2.03;1.42;;;25.90;99.90;27.00;102271.00;;;;5034029;28;20248;-75
2022/06/11 12:14:17;;;;;;;0.52;0.52;;;26.60;99.90;27.80;102279.00;;;;5035170;28;20298;-75
2022/06/11 12:17:10;;;;;;;0.60;0.43;;;26.90;99.90;25.70;102252.00;;;;5017274;28;20194;-75
2022/06/11 12:19:45;;;;;;;1.05;0.57;;;26.10;99.90;24.30;102271.00;;;;5019348;28;20201;-74
2022/06/11 12:23:05;;;;;;;2.40;2.20;;;24.80;99.90;25.40;102275.00;;;;5033089;28;20190;-74
2022/06/11 12:29:21;;;;;;;0.15;0.15;;;25.00;99.90;26.50;102277.00;;;;5031466;28;20191;-74
2022/06/11 12:32:38;;;;;;;1.45;0.98;;;25.70;99.90;26.20;102274.00;;;;5017278;28;20246;-75
2022/06/11 12:35:33;;;;;;;0.10;0.10;;;25.60;99.90;25.40;102279.00;;;;5032679;28;20217;-75
2022/06/11 12:38:20;;;;;;;1.95;0.82;;;25.00;99.90;25.80;102274.00;;;;5016462;28;20183;-74
2022/06/11 12:41:04;;;;;;;10.52;1.20;;;25.20;99.90;25.00;102273.00;;;;5026731;28;20190;-74
2022/06/11 12:43:54;;;;;;;11.05;1.35;;;24.80;99.90;24.70;102280.00;;;;5046142;28;20179;-74
2022/06/11 12:46:50;;;;;;;0.10;0.10;;;24.80;99.90;24.80;102286.00;;;;5033898;28;20167;-74
2022/06/11 12:50:20;;;;;;;0.10;0.10;;;24.30;99.90;24.90;102282.00;;;;5033642;28;20168;-74